sensor_id;sensor_type;location;lat;lon;timestamp;pressure;altitude;pressure_sealevel;temperature;humidity
41334;BME280;27078;46.428;6.256;2023-04-09T00:01:40;96825.88;;;8.44;100.00
41334;BME280;27078;46.428;6.256;2023-04-09T00:04:05;96831.81;;;8.59;98.29
41334;BME280;27078;46.428;6.256;2023-04-09T00:06:31;96839.50;;;8.62;99.25
41334;BME280;27078;46.428;6.256;2023-04-09T00:08:56;96821.06;;;8.62;100.00
41334;BME280;27078;46.428;6.256;2023-04-09T00:11:21;96827.50;;;8.58;100.00
41334;BME280;27078;46.428;6.256;2023-04-09T00:13:47;96819.44;;;8.95;100.00
41334;BME280;27078;46.428;6.256;2023-04-09T00:16:12;96826.53;;;8.94;95.31
41334;BME280;27078;46.428;6.256;2023-04-09T00:18:37;96812.41;;;9.07;100.00
41334;BME280;27078;46.428;6.256;2023-04-09T00:21:03;96815.63;;;8.99;97.61
41334;BME280;27078;46.428;6.256;2023-04-09T00:23:28;96816.97;;;8.93;98.70
41334;BME280;27078;46.428;6.256;2023-04-09T00:25:54;96826.16;;;8.99;92.84
41334;BME280;27078;46.428;6.256;2023-04-09T00:28:20;96801.03;;;9.06;94.39
41334;BME280;27078;46.428;6.256;2023-04-09T00:30:45;96808.69;;;8.98;97.44
41334;BME280;27078;46.428;6.256;2023-04-09T00:33:10;96794.72;;;9.31;97.52
41334;BME280;27078;46.428;6.256;2023-04-09T00:35:36;96792.41;;;9.27;91.80
41334;BME280;27078;46.428;6.256;2023-04-09T00:38:01;96788.44;;;9.10;95.90
41334;BME280;27078;46.428;6.256;2023-04-09T00:40:26;96796.22;;;8.89;92.78
41334;BME280;27078;46.428;6.256;2023-04-09T00:42:52;96800.25;;;8.70;97.89
41334;BME280;27078;46.428;6.256;2023-04-09T00:45:17;96787.91;;;8.60;100.00
41334;BME280;27078;46.428;6.256;2023-04-09T00:47:42;96792.00;;;8.40;100.00
41334;BME280;27078;46.428;6.256;2023-04-09T00:50:10;96795.94;;;8.34;97.65
41334;BME280;27078;46.428;6.256;2023-04-09T00:52:36;96790.63;;;8.47;98.25
41334;BME280;27078;46.428;6.256;2023-04-09T00:55:04;96800.75;;;8.16;99.33
41334;BME280;27078;46.428;6.256;2023-04-09T00:57:30;96798.75;;;8.20;100.00
41334;BME280;27078;46.428;6.256;2023-04-09T00:59:55;96805.72;;;8.08;97.23
41334;BME280;27078;46.428;6.256;2023-04-09T01:02:21;96800.53;;;8.19;100.00
41334;BME280;27078;46.428;6.256;2023-04-09T01:04:46;96810.34;;;8.17;99.84
41334;BME280;27078;46.428;6.256;2023-04-09T01:07:27;96812.22;;;7.91;100.00
41334;BME280;27078;46.428;6.256;2023-04-09T01:10:27;96817.75;;;7.75;100.00
41334;BME280;27078;46.428;6.256;2023-04-09T01:13:16;96805.88;;;7.93;100.00
41334;BME280;27078;46.428;6.256;2023-04-09T01:15:55;96812.44;;;7.88;100.00
41334;BME280;27078;46.428;6.256;2023-04-09T01:18:27;96813.91;;;7.92;100.00
41334;BME280;27078;46.428;6.256;2023-04-09T01:20:58;96812.69;;;7.72;100.00
41334;BME280;27078;46.428;6.256;2023-04-09T01:26:26;96825.13;;;7.70;100.00
41334;BME280;27078;46.428;6.256;2023-04-09T01:28:55;96819.25;;;7.66;100.00
41334;BME280;27078;46.428;6.256;2023-04-09T01:31:31;96819.78;;;7.59;100.00
41334;BME280;27078;46.428;6.256;2023-04-09T01:33:59;96822.38;;;7.34;100.00
41334;BME280;27078;46.428;6.256;2023-04-09T01:36:25;96816.75;;;7.52;100.00
41334;BME280;27078;46.428;6.256;2023-04-09T01:38:52;96820.00;;;7.55;100.00
41334;BME280;27078;46.428;6.256;2023-04-09T01:41:20;96820.09;;;7.67;100.00
41334;BME280;27078;46.428;6.256;2023-04-09T01:43:48;96817.63;;;7.27;100.00
41334;BME280;27078;46.428;6.256;2023-04-09T01:46:15;96817.22;;;7.07;100.00
41334;BME280;27078;46.428;6.256;2023-04-09T01:48:42;96815.09;;;7.25;100.00
41334;BME280;27078;46.428;6.256;2023-04-09T01:51:08;96822.03;;;7.39;100.00
41334;BME280;27078;46.428;6.256;2023-04-09T01:53:33;96812.56;;;7.49;100.00
41334;BME280;27078;46.428;6.256;2023-04-09T01:55:59;96810.09;;;7.59;100.00
41334;BME280;27078;46.428;6.256;2023-04-09T01:58:26;96814.97;;;7.52;100.00
41334;BME280;27078;46.428;6.256;2023-04-09T02:00:56;96809.81;;;7.38;100.00
41334;BME280;27078;46.428;6.256;2023-04-09T02:03:24;96804.16;;;7.44;100.00
41334;BME280;27078;46.428;6.256;2023-04-09T02:06:17;96810.53;;;7.53;100.00
41334;BME280;27078;46.428;6.256;2023-04-09T02:08:46;96802.78;;;7.51;100.00
41334;BME280;27078;46.428;6.256;2023-04-09T02:11:14;96815.50;;;7.45;100.00
41334;BME280;27078;46.428;6.256;2023-04-09T02:13:40;96809.06;;;7.49;100.00
41334;BME280;27078;46.428;6.256;2023-04-09T02:16:08;96805.22;;;7.42;100.00
41334;BME280;27078;46.428;6.256;2023-04-09T02:18:35;96820.25;;;7.40;100.00
41334;BME280;27078;46.428;6.256;2023-04-09T02:21:03;96814.91;;;7.28;100.00
41334;BME280;27078;46.428;6.256;2023-04-09T02:23:30;96808.59;;;7.31;100.00
41334;BME280;27078;46.428;6.256;2023-04-09T02:25:57;96819.53;;;7.25;100.00
41334;BME280;27078;46.428;6.256;2023-04-09T02:28:22;96818.28;;;7.18;100.00
41334;BME280;27078;46.428;6.256;2023-04-09T02:30:48;96830.22;;;7.09;100.00
41334;BME280;27078;46.428;6.256;2023-04-09T02:33:13;96821.75;;;7.18;100.00
41334;BME280;27078;46.428;6.256;2023-04-09T02:35:38;96823.72;;;7.14;100.00
41334;BME280;27078;46.428;6.256;2023-04-09T02:38:04;96820.59;;;7.09;100.00
41334;BME280;27078;46.428;6.256;2023-04-09T02:40:29;96819.13;;;7.05;100.00
41334;BME280;27078;46.428;6.256;2023-04-09T02:42:54;96833.41;;;7.01;100.00
41334;BME280;27078;46.428;6.256;2023-04-09T02:45:20;96827.59;;;6.96;100.00
41334;BME280;27078;46.428;6.256;2023-04-09T02:47:45;96832.75;;;6.85;100.00
41334;BME280;27078;46.428;6.256;2023-04-09T02:50:10;96835.25;;;6.61;100.00
41334;BME280;27078;46.428;6.256;2023-04-09T02:52:36;96835.78;;;6.26;100.00
41334;BME280;27078;46.428;6.256;2023-04-09T02:55:01;96836.91;;;5.95;100.00
41334;BME280;27078;46.428;6.256;2023-04-09T02:57:27;96839.88;;;5.61;100.00
41334;BME280;27078;46.428;6.256;2023-04-09T02:59:52;96830.19;;;5.35;100.00
41334;BME280;27078;46.428;6.256;2023-04-09T03:02:18;96840.19;;;5.14;100.00
41334;BME280;27078;46.428;6.256;2023-04-09T03:04:43;96832.53;;;5.10;100.00
41334;BME280;27078;46.428;6.256;2023-04-09T03:07:08;96832.31;;;4.99;100.00
41334;BME280;27078;46.428;6.256;2023-04-09T03:09:34;96836.56;;;5.02;100.00
41334;BME280;27078;46.428;6.256;2023-04-09T03:11:59;96830.75;;;5.11;100.00
41334;BME280;27078;46.428;6.256;2023-04-09T03:14:26;96830.44;;;5.01;100.00
41334;BME280;27078;46.428;6.256;2023-04-09T03:16:51;96829.16;;;4.94;100.00
41334;BME280;27078;46.428;6.256;2023-04-09T03:19:16;96831.84;;;4.93;100.00
41334;BME280;27078;46.428;6.256;2023-04-09T03:21:42;96827.09;;;4.85;100.00
41334;BME280;27078;46.428;6.256;2023-04-09T03:24:07;96829.31;;;4.77;100.00
41334;BME280;27078;46.428;6.256;2023-04-09T03:26:33;96828.56;;;4.75;100.00
41334;BME280;27078;46.428;6.256;2023-04-09T03:29:02;96826.88;;;4.74;100.00
41334;BME280;27078;46.428;6.256;2023-04-09T03:31:28;96825.66;;;4.65;100.00
41334;BME280;27078;46.428;6.256;2023-04-09T03:33:53;96825.91;;;4.60;100.00
41334;BME280;27078;46.428;6.256;2023-04-09T03:36:18;96827.38;;;4.50;100.00
41334;BME280;27078;46.428;6.256;2023-04-09T03:38:43;96821.25;;;4.51;100.00
41334;BME280;27078;46.428;6.256;2023-04-09T03:41:09;96828.34;;;4.49;100.00
41334;BME280;27078;46.428;6.256;2023-04-09T03:43:34;96837.78;;;4.52;100.00
41334;BME280;27078;46.428;6.256;2023-04-09T03:46:00;96833.38;;;4.52;100.00
41334;BME280;27078;46.428;6.256;2023-04-09T03:48:25;96831.69;;;4.51;100.00
41334;BME280;27078;46.428;6.256;2023-04-09T03:50:51;96835.59;;;4.44;100.00
41334;BME280;27078;46.428;6.256;2023-04-09T03:53:17;96832.22;;;4.42;100.00
41334;BME280;27078;46.428;6.256;2023-04-09T03:55:43;96828.72;;;4.27;100.00
41334;BME280;27078;46.428;6.256;2023-04-09T03:58:08;96834.69;;;4.29;100.00
41334;BME280;27078;46.428;6.256;2023-04-09T04:00:33;96832.75;;;4.33;100.00
41334;BME280;27078;46.428;6.256;2023-04-09T04:02:59;96831.06;;;4.32;100.00
41334;BME280;27078;46.428;6.256;2023-04-09T04:05:24;96834.06;;;4.40;100.00
41334;BME280;27078;46.428;6.256;2023-04-09T04:07:50;96832.22;;;4.42;100.00
41334;BME280;27078;46.428;6.256;2023-04-09T04:10:15;96838.31;;;4.42;100.00
41334;BME280;27078;46.428;6.256;2023-04-09T04:12:41;96831.94;;;4.32;100.00
41334;BME280;27078;46.428;6.256;2023-04-09T04:15:06;96831.19;;;4.14;100.00
41334;BME280;27078;46.428;6.256;2023-04-09T04:17:32;96836.66;;;4.25;100.00
41334;BME280;27078;46.428;6.256;2023-04-09T04:19:57;96840.75;;;4.29;100.00
41334;BME280;27078;46.428;6.256;2023-04-09T04:22:23;96837.53;;;4.10;100.00
41334;BME280;27078;46.428;6.256;2023-04-09T04:24:48;96844.44;;;4.11;100.00
41334;BME280;27078;46.428;6.256;2023-04-09T04:27:13;96849.00;;;4.07;100.00
41334;BME280;27078;46.428;6.256;2023-04-09T04:29:38;96849.00;;;4.23;100.00
41334;BME280;27078;46.428;6.256;2023-04-09T04:32:04;96857.66;;;4.24;100.00
41334;BME280;27078;46.428;6.256;2023-04-09T04:34:29;96860.91;;;4.13;100.00
41334;BME280;27078;46.428;6.256;2023-04-09T04:36:55;96856.69;;;3.95;100.00
41334;BME280;27078;46.428;6.256;2023-04-09T04:39:20;96862.41;;;4.17;100.00
41334;BME280;27078;46.428;6.256;2023-04-09T04:41:45;96860.81;;;3.99;100.00
41334;BME280;27078;46.428;6.256;2023-04-09T04:44:11;96862.16;;;4.06;100.00
41334;BME280;27078;46.428;6.256;2023-04-09T04:46:36;96855.94;;;3.93;100.00
41334;BME280;27078;46.428;6.256;2023-04-09T04:49:01;96860.31;;;3.76;100.00
41334;BME280;27078;46.428;6.256;2023-04-09T04:51:29;96858.09;;;3.37;100.00
41334;BME280;27078;46.428;6.256;2023-04-09T04:53:55;96864.16;;;3.37;100.00
41334;BME280;27078;46.428;6.256;2023-04-09T04:56:20;96864.00;;;3.40;100.00
41334;BME280;27078;46.428;6.256;2023-04-09T04:58:46;96874.22;;;3.61;100.00
41334;BME280;27078;46.428;6.256;2023-04-09T05:01:11;96866.81;;;3.85;100.00
41334;BME280;27078;46.428;6.256;2023-04-09T05:03:36;96871.28;;;3.99;100.00
41334;BME280;27078;46.428;6.256;2023-04-09T05:06:02;96878.34;;;3.97;100.00
41334;BME280;27078;46.428;6.256;2023-04-09T05:08:27;96881.03;;;3.95;100.00
41334;BME280;27078;46.428;6.256;2023-04-09T05:10:52;96886.28;;;3.79;100.00
41334;BME280;27078;46.428;6.256;2023-04-09T05:13:20;96882.91;;;3.77;100.00
41334;BME280;27078;46.428;6.256;2023-04-09T05:15:46;96887.81;;;3.83;100.00
41334;BME280;27078;46.428;6.256;2023-04-09T05:18:11;96884.94;;;3.88;100.00
41334;BME280;27078;46.428;6.256;2023-04-09T05:20:36;96888.47;;;3.87;100.00
41334;BME280;27078;46.428;6.256;2023-04-09T05:23:01;96885.44;;;3.95;100.00
41334;BME280;27078;46.428;6.256;2023-04-09T05:25:27;96887.09;;;3.96;100.00
41334;BME280;27078;46.428;6.256;2023-04-09T05:27:52;96883.66;;;4.11;100.00
41334;BME280;27078;46.428;6.256;2023-04-09T05:30:18;96885.06;;;4.17;100.00
41334;BME280;27078;46.428;6.256;2023-04-09T05:32:43;96882.56;;;4.15;100.00
41334;BME280;27078;46.428;6.256;2023-04-09T05:35:08;96882.13;;;4.23;100.00
41334;BME280;27078;46.428;6.256;2023-04-09T05:37:34;96885.00;;;4.34;100.00
41334;BME280;27078;46.428;6.256;2023-04-09T05:39:59;96890.38;;;4.31;100.00
41334;BME280;27078;46.428;6.256;2023-04-09T05:42:24;96883.28;;;4.33;100.00
41334;BME280;27078;46.428;6.256;2023-04-09T05:44:50;96883.13;;;4.36;100.00
41334;BME280;27078;46.428;6.256;2023-04-09T05:47:16;96892.16;;;4.31;100.00
41334;BME280;27078;46.428;6.256;2023-04-09T05:49:41;96889.94;;;4.39;100.00
41334;BME280;27078;46.428;6.256;2023-04-09T05:52:07;96889.06;;;4.54;100.00
41334;BME280;27078;46.428;6.256;2023-04-09T05:54:32;96896.22;;;4.66;100.00
41334;BME280;27078;46.428;6.256;2023-04-09T05:56:57;96894.28;;;4.70;100.00
41334;BME280;27078;46.428;6.256;2023-04-09T05:59:23;96901.97;;;4.87;100.00
41334;BME280;27078;46.428;6.256;2023-04-09T06:01:48;96896.84;;;5.00;100.00
41334;BME280;27078;46.428;6.256;2023-04-09T06:04:13;96901.66;;;5.08;100.00
41334;BME280;27078;46.428;6.256;2023-04-09T06:06:39;96900.22;;;5.02;100.00
41334;BME280;27078;46.428;6.256;2023-04-09T06:09:04;96901.84;;;5.19;100.00
41334;BME280;27078;46.428;6.256;2023-04-09T06:11:30;96904.91;;;5.26;100.00
41334;BME280;27078;46.428;6.256;2023-04-09T06:13:55;96908.28;;;5.28;100.00
41334;BME280;27078;46.428;6.256;2023-04-09T06:16:21;96907.09;;;5.34;100.00
41334;BME280;27078;46.428;6.256;2023-04-09T06:18:46;96910.94;;;5.42;100.00
41334;BME280;27078;46.428;6.256;2023-04-09T06:21:13;96912.88;;;5.53;100.00
41334;BME280;27078;46.428;6.256;2023-04-09T06:23:39;96916.88;;;5.73;100.00
41334;BME280;27078;46.428;6.256;2023-04-09T06:26:04;96907.34;;;5.86;100.00
41334;BME280;27078;46.428;6.256;2023-04-09T06:28:30;96913.44;;;6.01;100.00
41334;BME280;27078;46.428;6.256;2023-04-09T06:30:57;96914.25;;;6.16;100.00
41334;BME280;27078;46.428;6.256;2023-04-09T06:33:22;96905.47;;;6.30;100.00
41334;BME280;27078;46.428;6.256;2023-04-09T06:35:48;96909.53;;;6.48;100.00
41334;BME280;27078;46.428;6.256;2023-04-09T06:38:14;96916.09;;;6.68;100.00
41334;BME280;27078;46.428;6.256;2023-04-09T06:40:40;96910.06;;;6.93;100.00
41334;BME280;27078;46.428;6.256;2023-04-09T06:43:06;96904.84;;;7.06;100.00
41334;BME280;27078;46.428;6.256;2023-04-09T06:45:32;96908.19;;;7.08;100.00
41334;BME280;27078;46.428;6.256;2023-04-09T06:47:58;96900.13;;;7.24;100.00
41334;BME280;27078;46.428;6.256;2023-04-09T06:50:24;96910.31;;;7.42;100.00
41334;BME280;27078;46.428;6.256;2023-04-09T06:52:53;96911.47;;;7.50;100.00
41334;BME280;27078;46.428;6.256;2023-04-09T06:55:18;96908.19;;;7.60;100.00
41334;BME280;27078;46.428;6.256;2023-04-09T06:57:44;96905.88;;;7.68;100.00
41334;BME280;27078;46.428;6.256;2023-04-09T07:00:10;96907.75;;;7.79;100.00
41334;BME280;27078;46.428;6.256;2023-04-09T07:02:36;96910.28;;;7.80;100.00
41334;BME280;27078;46.428;6.256;2023-04-09T07:05:02;96907.94;;;8.01;100.00
41334;BME280;27078;46.428;6.256;2023-04-09T07:07:28;96922.00;;;8.13;100.00
41334;BME280;27078;46.428;6.256;2023-04-09T07:09:53;96922.13;;;8.48;100.00
41334;BME280;27078;46.428;6.256;2023-04-09T07:12:31;96912.94;;;8.54;100.00
41334;BME280;27078;46.428;6.256;2023-04-09T07:15:00;96918.44;;;8.51;100.00
41334;BME280;27078;46.428;6.256;2023-04-09T07:17:26;96913.22;;;8.62;100.00
41334;BME280;27078;46.428;6.256;2023-04-09T07:19:52;96911.34;;;8.75;100.00
41334;BME280;27078;46.428;6.256;2023-04-09T07:22:20;96907.44;;;8.81;100.00
41334;BME280;27078;46.428;6.256;2023-04-09T07:24:46;96911.19;;;9.01;100.00
41334;BME280;27078;46.428;6.256;2023-04-09T07:27:16;96912.50;;;9.42;100.00
41334;BME280;27078;46.428;6.256;2023-04-09T07:29:45;96917.09;;;9.74;100.00
41334;BME280;27078;46.428;6.256;2023-04-09T07:32:10;96917.06;;;9.96;100.00
41334;BME280;27078;46.428;6.256;2023-04-09T07:34:36;96909.84;;;10.21;100.00
41334;BME280;27078;46.428;6.256;2023-04-09T07:37:01;96919.31;;;10.35;100.00
41334;BME280;27078;46.428;6.256;2023-04-09T07:39:27;96916.94;;;10.32;100.00
41334;BME280;27078;46.428;6.256;2023-04-09T07:41:53;96910.09;;;10.29;100.00
41334;BME280;27078;46.428;6.256;2023-04-09T07:44:18;96916.56;;;10.36;100.00
41334;BME280;27078;46.428;6.256;2023-04-09T07:46:44;96908.91;;;10.33;100.00
41334;BME280;27078;46.428;6.256;2023-04-09T07:49:10;96901.91;;;10.44;100.00
41334;BME280;27078;46.428;6.256;2023-04-09T07:51:35;96910.63;;;10.55;100.00
41334;BME280;27078;46.428;6.256;2023-04-09T07:54:00;96913.88;;;10.59;100.00
41334;BME280;27078;46.428;6.256;2023-04-09T07:56:26;96918.72;;;10.75;100.00
41334;BME280;27078;46.428;6.256;2023-04-09T07:58:51;96919.75;;;10.84;100.00
41334;BME280;27078;46.428;6.256;2023-04-09T08:01:16;96925.97;;;10.94;100.00
41334;BME280;27078;46.428;6.256;2023-04-09T08:03:42;96920.56;;;10.95;100.00
41334;BME280;27078;46.428;6.256;2023-04-09T08:06:07;96926.09;;;10.71;100.00
41334;BME280;27078;46.428;6.256;2023-04-09T08:08:33;96924.16;;;10.62;100.00
41334;BME280;27078;46.428;6.256;2023-04-09T08:10:59;96923.44;;;10.60;100.00
41334;BME280;27078;46.428;6.256;2023-04-09T08:13:24;96923.00;;;10.55;100.00
41334;BME280;27078;46.428;6.256;2023-04-09T08:15:50;96923.44;;;10.71;100.00
41334;BME280;27078;46.428;6.256;2023-04-09T08:18:15;96922.94;;;10.77;100.00
41334;BME280;27078;46.428;6.256;2023-04-09T08:20:40;96928.22;;;10.77;100.00
41334;BME280;27078;46.428;6.256;2023-04-09T08:23:09;96927.69;;;10.84;100.00
41334;BME280;27078;46.428;6.256;2023-04-09T08:25:35;96926.44;;;10.99;100.00
41334;BME280;27078;46.428;6.256;2023-04-09T08:28:00;96937.34;;;11.06;100.00
41334;BME280;27078;46.428;6.256;2023-04-09T08:30:25;96929.41;;;11.06;100.00
41334;BME280;27078;46.428;6.256;2023-04-09T08:32:51;96931.88;;;11.18;100.00
41334;BME280;27078;46.428;6.256;2023-04-09T08:35:17;96929.44;;;11.27;100.00
41334;BME280;27078;46.428;6.256;2023-04-09T08:37:42;96915.63;;;11.44;100.00
41334;BME280;27078;46.428;6.256;2023-04-09T08:40:08;96926.16;;;11.65;100.00
41334;BME280;27078;46.428;6.256;2023-04-09T08:42:34;96928.81;;;11.65;100.00
41334;BME280;27078;46.428;6.256;2023-04-09T08:45:04;96932.47;;;11.74;100.00
41334;BME280;27078;46.428;6.256;2023-04-09T08:47:31;96936.13;;;11.73;100.00
41334;BME280;27078;46.428;6.256;2023-04-09T08:49:58;96938.22;;;11.79;100.00
41334;BME280;27078;46.428;6.256;2023-04-09T08:52:31;96938.22;;;11.79;100.00
41334;BME280;27078;46.428;6.256;2023-04-09T08:54:57;96947.00;;;11.79;100.00
41334;BME280;27078;46.428;6.256;2023-04-09T08:57:22;96944.91;;;11.83;100.00
41334;BME280;27078;46.428;6.256;2023-04-09T08:59:47;96939.19;;;11.78;100.00
41334;BME280;27078;46.428;6.256;2023-04-09T09:02:13;96939.97;;;11.90;100.00
41334;BME280;27078;46.428;6.256;2023-04-09T09:04:48;96944.19;;;12.02;100.00
41334;BME280;27078;46.428;6.256;2023-04-09T09:07:15;96944.59;;;11.97;100.00
41334;BME280;27078;46.428;6.256;2023-04-09T09:09:58;96947.75;;;11.60;100.00
41334;BME280;27078;46.428;6.256;2023-04-09T09:12:37;96949.59;;;11.70;100.00
41334;BME280;27078;46.428;6.256;2023-04-09T09:15:04;96941.59;;;11.81;100.00
41334;BME280;27078;46.428;6.256;2023-04-09T09:17:30;96950.88;;;11.75;100.00
41334;BME280;27078;46.428;6.256;2023-04-09T09:19:56;96947.66;;;11.93;100.00
41334;BME280;27078;46.428;6.256;2023-04-09T09:22:22;96947.13;;;11.78;100.00
41334;BME280;27078;46.428;6.256;2023-04-09T09:24:49;96948.47;;;11.93;100.00
41334;BME280;27078;46.428;6.256;2023-04-09T09:30:03;96953.22;;;11.69;100.00
41334;BME280;27078;46.428;6.256;2023-04-09T09:32:30;96942.13;;;11.85;100.00
41334;BME280;27078;46.428;6.256;2023-04-09T09:35:04;96943.06;;;11.74;100.00
41334;BME280;27078;46.428;6.256;2023-04-09T09:37:30;96939.00;;;11.70;100.00
41334;BME280;27078;46.428;6.256;2023-04-09T09:39:56;96937.47;;;11.88;100.00
41334;BME280;27078;46.428;6.256;2023-04-09T09:42:22;96941.41;;;12.04;100.00
41334;BME280;27078;46.428;6.256;2023-04-09T09:44:48;96944.34;;;12.00;100.00
41334;BME280;27078;46.428;6.256;2023-04-09T09:47:15;96937.13;;;12.02;100.00
41334;BME280;27078;46.428;6.256;2023-04-09T09:49:41;96939.06;;;12.00;100.00
41334;BME280;27078;46.428;6.256;2023-04-09T09:52:09;96934.47;;;12.02;100.00
41334;BME280;27078;46.428;6.256;2023-04-09T09:54:39;96929.59;;;12.08;100.00
41334;BME280;27078;46.428;6.256;2023-04-09T09:57:07;96938.66;;;12.15;100.00
41334;BME280;27078;46.428;6.256;2023-04-09T09:59:36;96937.13;;;12.12;100.00
41334;BME280;27078;46.428;6.256;2023-04-09T10:02:05;96931.25;;;11.99;100.00
41334;BME280;27078;46.428;6.256;2023-04-09T10:04:34;96933.72;;;11.91;100.00
41334;BME280;27078;46.428;6.256;2023-04-09T10:07:03;96936.59;;;12.09;100.00
41334;BME280;27078;46.428;6.256;2023-04-09T10:09:29;96938.47;;;12.37;100.00
41334;BME280;27078;46.428;6.256;2023-04-09T10:11:56;96934.91;;;12.58;100.00
41334;BME280;27078;46.428;6.256;2023-04-09T10:14:23;96936.44;;;12.80;100.00
41334;BME280;27078;46.428;6.256;2023-04-09T10:16:50;96931.41;;;12.87;100.00
41334;BME280;27078;46.428;6.256;2023-04-09T10:19:15;96931.88;;;12.92;100.00
41334;BME280;27078;46.428;6.256;2023-04-09T10:21:46;96931.16;;;12.90;100.00
41334;BME280;27078;46.428;6.256;2023-04-09T10:24:15;96933.53;;;13.02;100.00
41334;BME280;27078;46.428;6.256;2023-04-09T10:26:41;96930.03;;;13.21;100.00
41334;BME280;27078;46.428;6.256;2023-04-09T10:29:10;96930.31;;;13.28;100.00
41334;BME280;27078;46.428;6.256;2023-04-09T10:32:05;96924.72;;;13.21;100.00
41334;BME280;27078;46.428;6.256;2023-04-09T10:34:34;96919.97;;;13.06;100.00
41334;BME280;27078;46.428;6.256;2023-04-09T10:37:00;96923.19;;;13.09;100.00
41334;BME280;27078;46.428;6.256;2023-04-09T10:39:27;96911.91;;;13.07;100.00
41334;BME280;27078;46.428;6.256;2023-04-09T10:41:54;96914.97;;;12.93;100.00
41334;BME280;27078;46.428;6.256;2023-04-09T10:44:25;96920.16;;;13.04;100.00
41334;BME280;27078;46.428;6.256;2023-04-09T10:46:59;96908.56;;;13.15;100.00
41334;BME280;27078;46.428;6.256;2023-04-09T10:49:26;96921.66;;;13.16;100.00
41334;BME280;27078;46.428;6.256;2023-04-09T10:52:02;96912.47;;;13.01;100.00
41334;BME280;27078;46.428;6.256;2023-04-09T10:59:41;96912.16;;;13.23;100.00
41334;BME280;27078;46.428;6.256;2023-04-09T11:02:09;96904.06;;;13.35;100.00
41334;BME280;27078;46.428;6.256;2023-04-09T11:07:39;96898.25;;;13.02;100.00
41334;BME280;27078;46.428;6.256;2023-04-09T11:10:05;96902.41;;;13.34;100.00
41334;BME280;27078;46.428;6.256;2023-04-09T11:12:32;96890.06;;;13.52;100.00
41334;BME280;27078;46.428;6.256;2023-04-09T11:14:57;96896.72;;;13.76;100.00
41334;BME280;27078;46.428;6.256;2023-04-09T11:17:23;96885.13;;;13.77;100.00
41334;BME280;27078;46.428;6.256;2023-04-09T11:19:48;96889.38;;;13.97;100.00
41334;BME280;27078;46.428;6.256;2023-04-09T11:22:14;96887.41;;;13.99;100.00
41334;BME280;27078;46.428;6.256;2023-04-09T11:24:41;96887.84;;;14.22;100.00
41334;BME280;27078;46.428;6.256;2023-04-09T11:27:06;96889.81;;;14.20;100.00
41334;BME280;27078;46.428;6.256;2023-04-09T11:29:34;96885.94;;;14.15;100.00
41334;BME280;27078;46.428;6.256;2023-04-09T11:31:59;96872.19;;;14.19;100.00
41334;BME280;27078;46.428;6.256;2023-04-09T11:34:28;96876.88;;;14.35;100.00
41334;BME280;27078;46.428;6.256;2023-04-09T11:36:53;96876.91;;;14.25;100.00
41334;BME280;27078;46.428;6.256;2023-04-09T11:39:19;96874.31;;;14.43;100.00
41334;BME280;27078;46.428;6.256;2023-04-09T11:41:44;96876.53;;;14.20;100.00
41334;BME280;27078;46.428;6.256;2023-04-09T11:44:09;96876.88;;;14.35;100.00
41334;BME280;27078;46.428;6.256;2023-04-09T11:46:35;96873.25;;;14.54;100.00
41334;BME280;27078;46.428;6.256;2023-04-09T11:49:02;96869.22;;;14.50;100.00
41334;BME280;27078;46.428;6.256;2023-04-09T11:51:28;96873.34;;;14.62;100.00
41334;BME280;27078;46.428;6.256;2023-04-09T11:54:01;96863.25;;;14.66;100.00
41334;BME280;27078;46.428;6.256;2023-04-09T11:56:30;96867.50;;;14.59;100.00
41334;BME280;27078;46.428;6.256;2023-04-09T11:58:57;96864.25;;;14.65;100.00
41334;BME280;27078;46.428;6.256;2023-04-09T12:01:22;96862.34;;;14.75;100.00
41334;BME280;27078;46.428;6.256;2023-04-09T12:03:52;96867.50;;;14.95;100.00
41334;BME280;27078;46.428;6.256;2023-04-09T12:06:20;96865.59;;;14.87;100.00
41334;BME280;27078;46.428;6.256;2023-04-09T12:08:56;96851.97;;;15.08;100.00
41334;BME280;27078;46.428;6.256;2023-04-09T12:11:29;96857.16;;;14.92;100.00
41334;BME280;27078;46.428;6.256;2023-04-09T12:14:02;96856.53;;;14.98;100.00
41334;BME280;27078;46.428;6.256;2023-04-09T12:16:32;96846.66;;;15.08;100.00
41334;BME280;27078;46.428;6.256;2023-04-09T12:19:08;96853.00;;;15.15;100.00
41334;BME280;27078;46.428;6.256;2023-04-09T12:21:53;96852.25;;;15.23;100.00
41334;BME280;27078;46.428;6.256;2023-04-09T12:24:22;96846.59;;;15.26;100.00
41334;BME280;27078;46.428;6.256;2023-04-09T12:26:48;96848.22;;;15.45;100.00
41334;BME280;27078;46.428;6.256;2023-04-09T12:29:15;96846.50;;;15.62;100.00
41334;BME280;27078;46.428;6.256;2023-04-09T12:31:42;96844.75;;;15.44;100.00
41334;BME280;27078;46.428;6.256;2023-04-09T12:34:07;96842.19;;;15.61;100.00
41334;BME280;27078;46.428;6.256;2023-04-09T12:36:33;96843.09;;;15.43;100.00
41334;BME280;27078;46.428;6.256;2023-04-09T12:38:58;96842.38;;;15.67;100.00
41334;BME280;27078;46.428;6.256;2023-04-09T12:41:24;96834.78;;;15.73;100.00
41334;BME280;27078;46.428;6.256;2023-04-09T12:43:49;96835.63;;;15.73;100.00
41334;BME280;27078;46.428;6.256;2023-04-09T12:46:19;96834.47;;;15.76;100.00
41334;BME280;27078;46.428;6.256;2023-04-09T12:48:45;96825.44;;;16.03;100.00
41334;BME280;27078;46.428;6.256;2023-04-09T12:51:11;96828.25;;;16.01;100.00
41334;BME280;27078;46.428;6.256;2023-04-09T12:53:37;96824.72;;;15.93;100.00
41334;BME280;27078;46.428;6.256;2023-04-09T12:56:03;96820.28;;;16.10;93.59
41334;BME280;27078;46.428;6.256;2023-04-09T12:58:29;96824.44;;;16.12;97.88
41334;BME280;27078;46.428;6.256;2023-04-09T13:00:55;96818.88;;;15.89;92.67
41334;BME280;27078;46.428;6.256;2023-04-09T13:03:24;96823.09;;;16.08;97.89
41334;BME280;27078;46.428;6.256;2023-04-09T13:05:50;96823.97;;;16.17;93.31
41334;BME280;27078;46.428;6.256;2023-04-09T13:08:16;96814.81;;;16.11;88.74
41334;BME280;27078;46.428;6.256;2023-04-09T13:10:41;96817.44;;;16.03;90.75